sensor_id;sensor_type;location;lat;lon;timestamp;P1;durP1;ratioP1;P2;durP2;ratioP2
59970;SDS011;45825;45.434;9.116;2023-05-10T00:00:34;19.05;;;15.68;;
59970;SDS011;45825;45.434;9.116;2023-05-10T00:03:00;20.17;;;16.13;;
59970;SDS011;45825;45.434;9.116;2023-05-10T00:05:25;19.55;;;16.80;;
59970;SDS011;45825;45.434;9.116;2023-05-10T00:07:50;21.75;;;18.23;;
59970;SDS011;45825;45.434;9.116;2023-05-10T00:10:16;20.75;;;17.17;;
59970;SDS011;45825;45.434;9.116;2023-05-10T00:12:41;21.55;;;17.73;;
59970;SDS011;45825;45.434;9.116;2023-05-10T00:15:07;20.10;;;17.13;;
59970;SDS011;45825;45.434;9.116;2023-05-10T00:17:33;21.42;;;17.10;;
59970;SDS011;45825;45.434;9.116;2023-05-10T00:19:58;22.40;;;18.10;;
59970;SDS011;45825;45.434;9.116;2023-05-10T00:22:23;24.67;;;18.95;;
59970;SDS011;45825;45.434;9.116;2023-05-10T00:24:49;22.65;;;17.85;;
59970;SDS011;45825;45.434;9.116;2023-05-10T00:27:14;20.52;;;17.92;;
59970;SDS011;45825;45.434;9.116;2023-05-10T00:29:39;22.92;;;18.90;;
59970;SDS011;45825;45.434;9.116;2023-05-10T00:32:05;24.17;;;20.50;;
59970;SDS011;45825;45.434;9.116;2023-05-10T00:34:30;25.52;;;20.95;;
59970;SDS011;45825;45.434;9.116;2023-05-10T00:36:56;25.50;;;22.25;;
59970;SDS011;45825;45.434;9.116;2023-05-10T00:39:21;28.58;;;22.45;;
59970;SDS011;45825;45.434;9.116;2023-05-10T00:41:46;27.33;;;22.20;;
59970;SDS011;45825;45.434;9.116;2023-05-10T00:44:12;25.52;;;21.27;;
59970;SDS011;45825;45.434;9.116;2023-05-10T00:46:40;28.45;;;23.13;;
59970;SDS011;45825;45.434;9.116;2023-05-10T00:49:06;26.13;;;20.65;;
59970;SDS011;45825;45.434;9.116;2023-05-10T00:51:31;22.95;;;19.13;;
59970;SDS011;45825;45.434;9.116;2023-05-10T00:53:57;19.40;;;16.33;;
59970;SDS011;45825;45.434;9.116;2023-05-10T00:56:23;21.25;;;17.05;;
59970;SDS011;45825;45.434;9.116;2023-05-10T00:58:49;17.88;;;14.65;;
59970;SDS011;45825;45.434;9.116;2023-05-10T01:01:15;17.05;;;14.07;;
59970;SDS011;45825;45.434;9.116;2023-05-10T01:03:40;19.38;;;15.63;;
59970;SDS011;45825;45.434;9.116;2023-05-10T01:06:06;20.95;;;17.48;;
59970;SDS011;45825;45.434;9.116;2023-05-10T01:08:32;21.10;;;17.50;;
59970;SDS011;45825;45.434;9.116;2023-05-10T01:10:57;22.13;;;17.90;;
59970;SDS011;45825;45.434;9.116;2023-05-10T01:13:33;22.50;;;17.58;;
59970;SDS011;45825;45.434;9.116;2023-05-10T01:16:01;22.90;;;18.52;;
59970;SDS011;45825;45.434;9.116;2023-05-10T01:18:27;23.05;;;19.13;;
59970;SDS011;45825;45.434;9.116;2023-05-10T01:21:17;22.65;;;18.20;;
59970;SDS011;45825;45.434;9.116;2023-05-10T01:34:48;24.55;;;19.40;;
59970;SDS011;45825;45.434;9.116;2023-05-10T01:37:21;25.50;;;19.80;;
59970;SDS011;45825;45.434;9.116;2023-05-10T01:39:55;22.48;;;19.40;;
59970;SDS011;45825;45.434;9.116;2023-05-10T01:42:28;24.75;;;19.33;;
59970;SDS011;45825;45.434;9.116;2023-05-10T01:45:13;24.33;;;19.88;;
59970;SDS011;45825;45.434;9.116;2023-05-10T01:47:43;24.80;;;20.67;;
59970;SDS011;45825;45.434;9.116;2023-05-10T01:50:15;25.75;;;21.52;;
59970;SDS011;45825;45.434;9.116;2023-05-10T01:55:13;28.77;;;22.25;;
59970;SDS011;45825;45.434;9.116;2023-05-10T01:57:42;29.73;;;23.48;;
59970;SDS011;45825;45.434;9.116;2023-05-10T02:00:09;29.27;;;22.25;;
59970;SDS011;45825;45.434;9.116;2023-05-10T02:02:37;27.33;;;22.83;;
59970;SDS011;45825;45.434;9.116;2023-05-10T02:05:05;27.77;;;23.10;;
59970;SDS011;45825;45.434;9.116;2023-05-10T02:07:31;26.55;;;21.35;;
59970;SDS011;45825;45.434;9.116;2023-05-10T02:10:00;25.33;;;20.75;;
59970;SDS011;45825;45.434;9.116;2023-05-10T02:12:27;25.25;;;20.40;;
59970;SDS011;45825;45.434;9.116;2023-05-10T02:14:55;24.35;;;20.27;;
59970;SDS011;45825;45.434;9.116;2023-05-10T02:17:21;25.67;;;20.88;;
59970;SDS011;45825;45.434;9.116;2023-05-10T02:19:49;23.98;;;18.88;;
59970;SDS011;45825;45.434;9.116;2023-05-10T02:22:18;22.35;;;18.08;;
59970;SDS011;45825;45.434;9.116;2023-05-10T02:24:45;23.00;;;17.25;;
59970;SDS011;45825;45.434;9.116;2023-05-10T02:27:12;22.85;;;18.15;;
59970;SDS011;45825;45.434;9.116;2023-05-10T02:29:40;20.70;;;17.27;;
59970;SDS011;45825;45.434;9.116;2023-05-10T02:32:07;23.33;;;16.65;;
59970;SDS011;45825;45.434;9.116;2023-05-10T02:34:36;23.13;;;17.45;;
59970;SDS011;45825;45.434;9.116;2023-05-10T02:37:03;22.83;;;16.77;;
59970;SDS011;45825;45.434;9.116;2023-05-10T02:39:30;22.08;;;17.33;;
59970;SDS011;45825;45.434;9.116;2023-05-10T02:41:57;22.55;;;17.52;;
59970;SDS011;45825;45.434;9.116;2023-05-10T02:44:23;23.27;;;17.02;;
59970;SDS011;45825;45.434;9.116;2023-05-10T02:46:52;21.42;;;17.67;;
59970;SDS011;45825;45.434;9.116;2023-05-10T02:49:20;21.92;;;17.27;;
59970;SDS011;45825;45.434;9.116;2023-05-10T02:51:50;20.02;;;16.50;;
59970;SDS011;45825;45.434;9.116;2023-05-10T02:54:24;21.52;;;16.15;;
59970;SDS011;45825;45.434;9.116;2023-05-10T02:56:56;19.60;;;16.50;;
59970;SDS011;45825;45.434;9.116;2023-05-10T02:59:27;20.23;;;14.98;;
59970;SDS011;45825;45.434;9.116;2023-05-10T03:01:53;20.00;;;15.45;;
59970;SDS011;45825;45.434;9.116;2023-05-10T03:04:18;19.60;;;14.63;;
59970;SDS011;45825;45.434;9.116;2023-05-10T03:06:44;16.25;;;13.23;;
59970;SDS011;45825;45.434;9.116;2023-05-10T03:09:09;20.45;;;15.02;;
59970;SDS011;45825;45.434;9.116;2023-05-10T03:14:45;19.95;;;15.00;;
59970;SDS011;45825;45.434;9.116;2023-05-10T03:17:30;21.33;;;15.02;;
59970;SDS011;45825;45.434;9.116;2023-05-10T03:20:03;18.95;;;15.48;;
59970;SDS011;45825;45.434;9.116;2023-05-10T03:22:44;19.75;;;15.05;;
59970;SDS011;45825;45.434;9.116;2023-05-10T03:25:12;19.65;;;13.98;;
59970;SDS011;45825;45.434;9.116;2023-05-10T03:27:41;16.80;;;13.38;;
59970;SDS011;45825;45.434;9.116;2023-05-10T03:30:10;18.50;;;14.30;;
59970;SDS011;45825;45.434;9.116;2023-05-10T03:32:36;17.55;;;13.70;;
59970;SDS011;45825;45.434;9.116;2023-05-10T03:35:06;15.68;;;12.65;;
59970;SDS011;45825;45.434;9.116;2023-05-10T03:37:33;16.90;;;13.23;;
59970;SDS011;45825;45.434;9.116;2023-05-10T03:39:58;16.25;;;12.13;;
59970;SDS011;45825;45.434;9.116;2023-05-10T03:42:23;17.02;;;13.43;;
59970;SDS011;45825;45.434;9.116;2023-05-10T03:44:49;16.83;;;13.10;;
59970;SDS011;45825;45.434;9.116;2023-05-10T03:47:14;16.48;;;13.25;;
59970;SDS011;45825;45.434;9.116;2023-05-10T03:49:40;15.95;;;12.93;;
59970;SDS011;45825;45.434;9.116;2023-05-10T03:52:05;15.18;;;12.25;;
59970;SDS011;45825;45.434;9.116;2023-05-10T03:54:31;18.98;;;13.73;;
59970;SDS011;45825;45.434;9.116;2023-05-10T03:56:57;14.82;;;12.27;;
59970;SDS011;45825;45.434;9.116;2023-05-10T03:59:22;15.93;;;11.68;;
59970;SDS011;45825;45.434;9.116;2023-05-10T04:01:47;15.15;;;11.25;;
59970;SDS011;45825;45.434;9.116;2023-05-10T04:04:13;14.02;;;10.27;;
59970;SDS011;45825;45.434;9.116;2023-05-10T04:06:38;14.50;;;10.57;;
59970;SDS011;45825;45.434;9.116;2023-05-10T04:09:03;14.40;;;10.60;;
59970;SDS011;45825;45.434;9.116;2023-05-10T04:11:29;13.55;;;9.77;;
59970;SDS011;45825;45.434;9.116;2023-05-10T04:13:55;13.77;;;9.82;;
59970;SDS011;45825;45.434;9.116;2023-05-10T04:16:20;12.05;;;9.13;;
59970;SDS011;45825;45.434;9.116;2023-05-10T04:18:45;11.68;;;9.27;;
59970;SDS011;45825;45.434;9.116;2023-05-10T04:21:11;13.25;;;9.10;;
59970;SDS011;45825;45.434;9.116;2023-05-10T04:23:37;12.15;;;9.48;;
59970;SDS011;45825;45.434;9.116;2023-05-10T04:26:02;13.95;;;10.02;;
59970;SDS011;45825;45.434;9.116;2023-05-10T04:28:28;13.27;;;9.75;;
59970;SDS011;45825;45.434;9.116;2023-05-10T04:30:55;14.32;;;9.73;;
59970;SDS011;45825;45.434;9.116;2023-05-10T04:33:25;11.40;;;8.98;;
59970;SDS011;45825;45.434;9.116;2023-05-10T04:35:51;13.10;;;9.60;;
59970;SDS011;45825;45.434;9.116;2023-05-10T04:38:16;14.50;;;9.27;;
59970;SDS011;45825;45.434;9.116;2023-05-10T04:40:41;13.20;;;9.40;;
59970;SDS011;45825;45.434;9.116;2023-05-10T04:43:06;12.20;;;8.93;;
59970;SDS011;45825;45.434;9.116;2023-05-10T04:45:32;14.98;;;8.77;;
59970;SDS011;45825;45.434;9.116;2023-05-10T04:47:57;12.15;;;8.35;;
59970;SDS011;45825;45.434;9.116;2023-05-10T04:50:22;11.43;;;8.75;;
59970;SDS011;45825;45.434;9.116;2023-05-10T04:52:48;11.02;;;8.40;;
59970;SDS011;45825;45.434;9.116;2023-05-10T04:55:13;10.40;;;8.20;;
59970;SDS011;45825;45.434;9.116;2023-05-10T04:57:38;9.98;;;7.82;;
59970;SDS011;45825;45.434;9.116;2023-05-10T05:00:04;12.32;;;8.10;;
59970;SDS011;45825;45.434;9.116;2023-05-10T05:02:29;12.85;;;8.82;;
59970;SDS011;45825;45.434;9.116;2023-05-10T05:04:55;13.48;;;8.55;;
59970;SDS011;45825;45.434;9.116;2023-05-10T05:07:22;11.70;;;8.85;;
59970;SDS011;45825;45.434;9.116;2023-05-10T05:09:48;13.63;;;9.27;;
59970;SDS011;45825;45.434;9.116;2023-05-10T05:12:13;13.07;;;8.75;;
59970;SDS011;45825;45.434;9.116;2023-05-10T05:14:39;10.73;;;8.18;;
59970;SDS011;45825;45.434;9.116;2023-05-10T05:17:04;11.00;;;7.97;;
59970;SDS011;45825;45.434;9.116;2023-05-10T05:19:30;11.48;;;8.40;;
59970;SDS011;45825;45.434;9.116;2023-05-10T05:21:56;11.95;;;8.38;;
59970;SDS011;45825;45.434;9.116;2023-05-10T05:24:21;11.13;;;8.38;;
59970;SDS011;45825;45.434;9.116;2023-05-10T05:26:46;10.77;;;8.48;;
59970;SDS011;45825;45.434;9.116;2023-05-10T05:29:12;10.63;;;8.05;;
59970;SDS011;45825;45.434;9.116;2023-05-10T05:31:37;11.82;;;8.57;;
59970;SDS011;45825;45.434;9.116;2023-05-10T05:34:02;11.75;;;8.73;;
59970;SDS011;45825;45.434;9.116;2023-05-10T05:36:28;11.00;;;8.40;;
59970;SDS011;45825;45.434;9.116;2023-05-10T05:38:53;12.25;;;8.88;;
59970;SDS011;45825;45.434;9.116;2023-05-10T05:41:18;14.18;;;10.07;;
59970;SDS011;45825;45.434;9.116;2023-05-10T05:43:43;14.23;;;9.88;;
59970;SDS011;45825;45.434;9.116;2023-05-10T05:46:09;13.48;;;9.65;;
59970;SDS011;45825;45.434;9.116;2023-05-10T05:48:34;13.05;;;9.90;;
59970;SDS011;45825;45.434;9.116;2023-05-10T05:51:00;15.13;;;10.70;;
59970;SDS011;45825;45.434;9.116;2023-05-10T05:53:25;13.32;;;10.23;;
59970;SDS011;45825;45.434;9.116;2023-05-10T05:55:51;12.85;;;9.82;;
59970;SDS011;45825;45.434;9.116;2023-05-10T05:58:20;12.70;;;10.05;;
59970;SDS011;45825;45.434;9.116;2023-05-10T06:00:49;13.80;;;10.38;;
59970;SDS011;45825;45.434;9.116;2023-05-10T06:03:15;13.52;;;10.52;;
59970;SDS011;45825;45.434;9.116;2023-05-10T06:05:40;14.85;;;11.82;;
59970;SDS011;45825;45.434;9.116;2023-05-10T06:08:05;14.93;;;11.65;;
59970;SDS011;45825;45.434;9.116;2023-05-10T06:10:31;13.23;;;10.10;;
59970;SDS011;45825;45.434;9.116;2023-05-10T06:12:56;15.30;;;10.98;;
59970;SDS011;45825;45.434;9.116;2023-05-10T06:15:22;14.30;;;10.00;;
59970;SDS011;45825;45.434;9.116;2023-05-10T06:17:47;13.63;;;10.80;;
59970;SDS011;45825;45.434;9.116;2023-05-10T06:20:14;14.75;;;11.20;;
59970;SDS011;45825;45.434;9.116;2023-05-10T06:22:40;15.35;;;11.75;;
59970;SDS011;45825;45.434;9.116;2023-05-10T06:25:05;14.48;;;11.60;;
59970;SDS011;45825;45.434;9.116;2023-05-10T06:27:31;15.15;;;11.70;;
59970;SDS011;45825;45.434;9.116;2023-05-10T06:29:56;14.75;;;11.50;;
59970;SDS011;45825;45.434;9.116;2023-05-10T06:32:21;15.25;;;11.48;;
59970;SDS011;45825;45.434;9.116;2023-05-10T06:34:47;14.93;;;10.90;;
59970;SDS011;45825;45.434;9.116;2023-05-10T06:37:12;15.07;;;11.52;;
59970;SDS011;45825;45.434;9.116;2023-05-10T06:39:37;12.93;;;10.77;;
59970;SDS011;45825;45.434;9.116;2023-05-10T06:42:02;13.32;;;10.20;;
59970;SDS011;45825;45.434;9.116;2023-05-10T06:44:29;14.25;;;10.73;;
59970;SDS011;45825;45.434;9.116;2023-05-10T06:46:54;14.93;;;10.70;;
59970;SDS011;45825;45.434;9.116;2023-05-10T06:49:20;11.82;;;9.10;;
59970;SDS011;45825;45.434;9.116;2023-05-10T06:51:46;11.68;;;9.23;;
59970;SDS011;45825;45.434;9.116;2023-05-10T06:54:11;10.65;;;7.22;;
59970;SDS011;45825;45.434;9.116;2023-05-10T06:56:36;11.00;;;7.70;;
59970;SDS011;45825;45.434;9.116;2023-05-10T06:59:02;10.35;;;7.53;;
59970;SDS011;45825;45.434;9.116;2023-05-10T07:01:27;9.05;;;7.03;;
59970;SDS011;45825;45.434;9.116;2023-05-10T07:03:53;9.20;;;6.68;;
59970;SDS011;45825;45.434;9.116;2023-05-10T07:06:18;10.85;;;6.60;;
59970;SDS011;45825;45.434;9.116;2023-05-10T07:08:43;9.50;;;7.00;;
59970;SDS011;45825;45.434;9.116;2023-05-10T07:11:09;11.18;;;7.55;;
59970;SDS011;45825;45.434;9.116;2023-05-10T07:13:37;9.48;;;6.93;;
59970;SDS011;45825;45.434;9.116;2023-05-10T07:16:06;8.18;;;6.43;;
59970;SDS011;45825;45.434;9.116;2023-05-10T07:18:32;9.20;;;7.13;;
59970;SDS011;45825;45.434;9.116;2023-05-10T07:20:58;9.75;;;6.85;;
59970;SDS011;45825;45.434;9.116;2023-05-10T07:23:23;10.40;;;7.22;;
59970;SDS011;45825;45.434;9.116;2023-05-10T07:25:49;9.10;;;6.47;;
59970;SDS011;45825;45.434;9.116;2023-05-10T07:28:17;10.02;;;6.18;;
59970;SDS011;45825;45.434;9.116;2023-05-10T07:30:43;7.35;;;5.13;;
59970;SDS011;45825;45.434;9.116;2023-05-10T07:33:09;7.80;;;5.60;;
59970;SDS011;45825;45.434;9.116;2023-05-10T07:35:36;8.80;;;5.53;;
59970;SDS011;45825;45.434;9.116;2023-05-10T07:38:01;8.50;;;5.20;;
59970;SDS011;45825;45.434;9.116;2023-05-10T07:40:27;8.45;;;4.85;;
59970;SDS011;45825;45.434;9.116;2023-05-10T07:42:54;8.93;;;6.30;;
59970;SDS011;45825;45.434;9.116;2023-05-10T07:45:20;8.25;;;5.60;;
59970;SDS011;45825;45.434;9.116;2023-05-10T07:47:45;7.30;;;4.70;;
59970;SDS011;45825;45.434;9.116;2023-05-10T07:50:11;8.25;;;5.43;;
59970;SDS011;45825;45.434;9.116;2023-05-10T07:52:36;6.60;;;4.63;;
59970;SDS011;45825;45.434;9.116;2023-05-10T07:55:01;7.80;;;5.28;;
59970;SDS011;45825;45.434;9.116;2023-05-10T07:57:27;7.70;;;5.55;;
59970;SDS011;45825;45.434;9.116;2023-05-10T07:59:52;9.65;;;5.32;;
59970;SDS011;45825;45.434;9.116;2023-05-10T08:02:17;7.78;;;5.28;;
59970;SDS011;45825;45.434;9.116;2023-05-10T08:04:43;7.43;;;4.68;;
59970;SDS011;45825;45.434;9.116;2023-05-10T08:07:08;6.45;;;4.25;;
59970;SDS011;45825;45.434;9.116;2023-05-10T08:09:33;7.32;;;4.50;;
59970;SDS011;45825;45.434;9.116;2023-05-10T08:11:58;8.98;;;4.03;;
59970;SDS011;45825;45.434;9.116;2023-05-10T08:14:28;6.45;;;3.83;;
59970;SDS011;45825;45.434;9.116;2023-05-10T08:16:53;5.97;;;3.83;;
59970;SDS011;45825;45.434;9.116;2023-05-10T08:19:18;5.63;;;3.60;;
59970;SDS011;45825;45.434;9.116;2023-05-10T08:21:46;6.13;;;3.80;;
59970;SDS011;45825;45.434;9.116;2023-05-10T08:24:11;6.88;;;3.53;;
59970;SDS011;45825;45.434;9.116;2023-05-10T08:26:36;6.57;;;3.85;;
59970;SDS011;45825;45.434;9.116;2023-05-10T08:29:02;5.90;;;3.53;;
59970;SDS011;45825;45.434;9.116;2023-05-10T08:31:27;7.55;;;4.22;;
59970;SDS011;45825;45.434;9.116;2023-05-10T08:33:52;6.20;;;3.80;;
59970;SDS011;45825;45.434;9.116;2023-05-10T08:36:18;6.47;;;4.20;;
59970;SDS011;45825;45.434;9.116;2023-05-10T08:38:46;6.22;;;3.90;;
59970;SDS011;45825;45.434;9.116;2023-05-10T08:41:12;5.43;;;3.60;;
59970;SDS011;45825;45.434;9.116;2023-05-10T08:43:38;6.63;;;3.60;;
59970;SDS011;45825;45.434;9.116;2023-05-10T08:46:04;6.22;;;3.83;;
59970;SDS011;45825;45.434;9.116;2023-05-10T08:48:30;6.28;;;3.95;;
59970;SDS011;45825;45.434;9.116;2023-05-10T08:50:59;6.15;;;3.78;;
59970;SDS011;45825;45.434;9.116;2023-05-10T08:53:25;8.27;;;4.25;;
59970;SDS011;45825;45.434;9.116;2023-05-10T08:55:52;6.15;;;3.80;;
59970;SDS011;45825;45.434;9.116;2023-05-10T08:58:17;6.47;;;4.28;;
59970;SDS011;45825;45.434;9.116;2023-05-10T09:00:44;6.25;;;4.10;;
59970;SDS011;45825;45.434;9.116;2023-05-10T09:03:10;6.18;;;4.13;;
59970;SDS011;45825;45.434;9.116;2023-05-10T09:05:36;6.30;;;3.97;;
59970;SDS011;45825;45.434;9.116;2023-05-10T09:08:02;7.32;;;3.90;;
59970;SDS011;45825;45.434;9.116;2023-05-10T09:10:27;6.70;;;4.18;;
59970;SDS011;45825;45.434;9.116;2023-05-10T09:12:53;7.05;;;4.32;;
59970;SDS011;45825;45.434;9.116;2023-05-10T09:15:21;6.35;;;4.13;;
59970;SDS011;45825;45.434;9.116;2023-05-10T09:17:46;7.28;;;4.35;;
59970;SDS011;45825;45.434;9.116;2023-05-10T09:20:13;9.88;;;4.70;;
59970;SDS011;45825;45.434;9.116;2023-05-10T09:22:39;7.95;;;4.63;;
59970;SDS011;45825;45.434;9.116;2023-05-10T09:27:35;6.65;;;4.10;;
59970;SDS011;45825;45.434;9.116;2023-05-10T09:30:02;7.45;;;4.57;;
59970;SDS011;45825;45.434;9.116;2023-05-10T09:32:47;7.35;;;4.80;;
59970;SDS011;45825;45.434;9.116;2023-05-10T09:35:14;7.95;;;4.80;;
59970;SDS011;45825;45.434;9.116;2023-05-10T09:37:41;7.05;;;4.97;;
59970;SDS011;45825;45.434;9.116;2023-05-10T09:40:11;7.25;;;4.38;;
59970;SDS011;45825;45.434;9.116;2023-05-10T09:42:37;5.97;;;3.80;;
59970;SDS011;45825;45.434;9.116;2023-05-10T09:45:04;7.10;;;4.43;;
59970;SDS011;45825;45.434;9.116;2023-05-10T09:47:32;6.90;;;3.90;;
59970;SDS011;45825;45.434;9.116;2023-05-10T09:49:59;7.32;;;3.80;;
59970;SDS011;45825;45.434;9.116;2023-05-10T09:52:50;6.45;;;4.00;;
59970;SDS011;45825;45.434;9.116;2023-05-10T09:55:22;6.38;;;4.10;;
59970;SDS011;45825;45.434;9.116;2023-05-10T09:57:50;6.07;;;3.40;;
59970;SDS011;45825;45.434;9.116;2023-05-10T10:00:24;5.63;;;3.75;;
59970;SDS011;45825;45.434;9.116;2023-05-10T10:02:58;6.30;;;3.85;;
59970;SDS011;45825;45.434;9.116;2023-05-10T10:05:28;6.63;;;4.20;;
59970;SDS011;45825;45.434;9.116;2023-05-10T10:07:59;7.32;;;4.10;;
59970;SDS011;45825;45.434;9.116;2023-05-10T10:10:27;6.72;;;3.75;;
59970;SDS011;45825;45.434;9.116;2023-05-10T10:12:53;5.80;;;3.80;;
59970;SDS011;45825;45.434;9.116;2023-05-10T10:15:22;7.15;;;4.72;;
59970;SDS011;45825;45.434;9.116;2023-05-10T10:17:48;7.88;;;4.78;;
59970;SDS011;45825;45.434;9.116;2023-05-10T10:20:14;8.68;;;5.28;;
59970;SDS011;45825;45.434;9.116;2023-05-10T10:22:40;7.00;;;4.72;;
59970;SDS011;45825;45.434;9.116;2023-05-10T10:25:06;7.28;;;5.25;;
59970;SDS011;45825;45.434;9.116;2023-05-10T10:35:03;7.68;;;5.20;;
59970;SDS011;45825;45.434;9.116;2023-05-10T10:37:45;6.82;;;4.95;;
59970;SDS011;45825;45.434;9.116;2023-05-10T10:40:30;7.40;;;5.10;;
59970;SDS011;45825;45.434;9.116;2023-05-10T10:42:57;6.80;;;5.05;;
59970;SDS011;45825;45.434;9.116;2023-05-10T10:45:24;7.75;;;4.90;;
59970;SDS011;45825;45.434;9.116;2023-05-10T10:50:46;7.05;;;4.78;;
59970;SDS011;45825;45.434;9.116;2023-05-10T10:53:11;6.60;;;4.82;;
59970;SDS011;45825;45.434;9.116;2023-05-10T10:55:44;7.07;;;5.18;;
59970;SDS011;45825;45.434;9.116;2023-05-10T10:58:12;7.40;;;4.80;;
59970;SDS011;45825;45.434;9.116;2023-05-10T11:01:14;6.70;;;4.53;;
59970;SDS011;45825;45.434;9.116;2023-05-10T11:03:54;6.95;;;4.47;;
59970;SDS011;45825;45.434;9.116;2023-05-10T11:06:29;6.40;;;4.63;;
59970;SDS011;45825;45.434;9.116;2023-05-10T11:08:59;7.53;;;4.95;;
59970;SDS011;45825;45.434;9.116;2023-05-10T11:11:30;7.25;;;5.00;;
59970;SDS011;45825;45.434;9.116;2023-05-10T11:13:56;7.82;;;4.88;;
59970;SDS011;45825;45.434;9.116;2023-05-10T11:16:28;8.50;;;4.93;;
59970;SDS011;45825;45.434;9.116;2023-05-10T11:19:10;7.00;;;4.80;;
59970;SDS011;45825;45.434;9.116;2023-05-10T11:21:46;7.88;;;4.90;;
59970;SDS011;45825;45.434;9.116;2023-05-10T11:24:14;6.80;;;4.47;;
59970;SDS011;45825;45.434;9.116;2023-05-10T11:26:43;6.70;;;5.13;;
59970;SDS011;45825;45.434;9.116;2023-05-10T11:29:09;7.53;;;5.00;;
59970;SDS011;45825;45.434;9.116;2023-05-10T11:31:35;6.70;;;4.75;;
59970;SDS011;45825;45.434;9.116;2023-05-10T11:34:07;7.18;;;4.75;;
59970;SDS011;45825;45.434;9.116;2023-05-10T11:36:33;6.40;;;4.40;;
59970;SDS011;45825;45.434;9.116;2023-05-10T11:39:00;8.25;;;5.13;;
59970;SDS011;45825;45.434;9.116;2023-05-10T11:41:27;7.45;;;4.60;;
59970;SDS011;45825;45.434;9.116;2023-05-10T11:43:54;8.25;;;5.47;;
59970;SDS011;45825;45.434;9.116;2023-05-10T11:46:21;7.68;;;5.38;;
59970;SDS011;45825;45.434;9.116;2023-05-10T11:48:51;8.40;;;6.07;;
59970;SDS011;45825;45.434;9.116;2023-05-10T11:51:21;8.32;;;5.53;;
59970;SDS011;45825;45.434;9.116;2023-05-10T11:53:48;7.70;;;5.75;;
59970;SDS011;45825;45.434;9.116;2023-05-10T11:56:15;7.88;;;6.00;;
59970;SDS011;45825;45.434;9.116;2023-05-10T11:58:40;8.45;;;5.82;;
59970;SDS011;45825;45.434;9.116;2023-05-10T12:01:06;7.82;;;5.68;;
59970;SDS011;45825;45.434;9.116;2023-05-10T12:03:33;8.80;;;6.05;;
59970;SDS011;45825;45.434;9.116;2023-05-10T12:05:59;12.30;;;6.10;;
59970;SDS011;45825;45.434;9.116;2023-05-10T12:08:26;7.40;;;5.57;;
59970;SDS011;45825;45.434;9.116;2023-05-10T12:11:05;8.25;;;5.60;;
59970;SDS011;45825;45.434;9.116;2023-05-10T12:13:32;6.93;;;5.20;;
59970;SDS011;45825;45.434;9.116;2023-05-10T12:15:58;8.15;;;4.78;;
59970;SDS011;45825;45.434;9.116;2023-05-10T12:18:24;7.28;;;4.60;;
59970;SDS011;45825;45.434;9.116;2023-05-10T12:20:51;6.78;;;4.43;;
59970;SDS011;45825;45.434;9.116;2023-05-10T12:23:18;7.35;;;4.40;;
59970;SDS011;45825;45.434;9.116;2023-05-10T12:25:45;8.15;;;4.55;;
59970;SDS011;45825;45.434;9.116;2023-05-10T12:28:10;7.43;;;4.25;;
59970;SDS011;45825;45.434;9.116;2023-05-10T12:30:36;6.32;;;4.07;;
59970;SDS011;45825;45.434;9.116;2023-05-10T12:33:02;6.63;;;3.90;;
59970;SDS011;45825;45.434;9.116;2023-05-10T12:35:48;6.05;;;3.80;;
59970;SDS011;45825;45.434;9.116;2023-05-10T12:38:25;5.82;;;4.07;;
59970;SDS011;45825;45.434;9.116;2023-05-10T12:40:54;7.75;;;4.22;;
59970;SDS011;45825;45.434;9.116;2023-05-10T12:43:20;6.50;;;3.72;;
59970;SDS011;45825;45.434;9.116;2023-05-10T12:45:46;6.00;;;3.60;;
59970;SDS011;45825;45.434;9.116;2023-05-10T12:48:13;6.95;;;3.78;;
59970;SDS011;45825;45.434;9.116;2023-05-10T12:50:39;7.18;;;4.22;;
59970;SDS011;45825;45.434;9.116;2023-05-10T12:53:04;5.88;;;3.60;;
59970;SDS011;45825;45.434;9.116;2023-05-10T12:55:30;7.03;;;3.58;;
59970;SDS011;45825;45.434;9.116;2023-05-10T12:57:55;5.78;;;3.70;;
59970;SDS011;45825;45.434;9.116;2023-05-10T13:00:21;6.07;;;3.80;;
59970;SDS011;45825;45.434;9.116;2023-05-10T13:02:46;6.18;;;4.28;;
59970;SDS011;45825;45.434;9.116;2023-05-10T13:05:12;7.38;;;3.83;;
59970;SDS011;45825;45.434;9.116;2023-05-10T13:07:38;5.65;;;4.00;;
59970;SDS011;45825;45.434;9.116;2023-05-10T13:10:04;7.03;;;3.60;;
59970;SDS011;45825;45.434;9.116;2023-05-10T13:12:30;5.47;;;3.83;;
59970;SDS011;45825;45.434;9.116;2023-05-10T13:14:55;6.25;;;3.42;;
59970;SDS011;45825;45.434;9.116;2023-05-10T13:17:21;6.40;;;4.40;;
59970;SDS011;45825;45.434;9.116;2023-05-10T13:19:46;7.10;;;3.55;;
59970;SDS011;45825;45.434;9.116;2023-05-10T13:22:11;7.63;;;3.60;;
59970;SDS011;45825;45.434;9.116;2023-05-10T13:24:37;5.30;;;3.50;;
59970;SDS011;45825;45.434;9.116;2023-05-10T13:27:02;6.97;;;3.50;;
59970;SDS011;45825;45.434;9.116;2023-05-10T13:29:27;5.13;;;3.53;;
59970;SDS011;45825;45.434;9.116;2023-05-10T13:31:52;5.70;;;3.30;;
59970;SDS011;45825;45.434;9.116;2023-05-10T13:34:18;6.13;;;3.70;;
59970;SDS011;45825;45.434;9.116;2023-05-10T13:36:45;6.25;;;4.10;;
59970;SDS011;45825;45.434;9.116;2023-05-10T13:39:11;5.95;;;3.67;;
59970;SDS011;45825;45.434;9.116;2023-05-10T13:41:36;6.68;;;4.13;;
59970;SDS011;45825;45.434;9.116;2023-05-10T13:44:02;5.65;;;3.65;;
59970;SDS011;45825;45.434;9.116;2023-05-10T13:46:28;6.43;;;3.72;;
59970;SDS011;45825;45.434;9.116;2023-05-10T13:48:54;5.07;;;3.42;;
59970;SDS011;45825;45.434;9.116;2023-05-10T13:51:19;6.80;;;3.80;;
59970;SDS011;45825;45.434;9.116;2023-05-10T13:53:45;5.85;;;3.42;;
59970;SDS011;45825;45.434;9.116;2023-05-10T13:56:12;5.78;;;3.75;;
59970;SDS011;45825;45.434;9.116;2023-05-10T13:58:37;6.50;;;3.80;;
59970;SDS011;45825;45.434;9.116;2023-05-10T14:01:03;5.30;;;3.30;;
59970;SDS011;45825;45.434;9.116;2023-05-10T14:03:29;5.82;;;3.97;;
59970;SDS011;45825;45.434;9.116;2023-05-10T14:05:55;6.45;;;4.50;;
59970;SDS011;45825;45.434;9.116;2023-05-10T14:08:20;7.60;;;4.50;;
59970;SDS011;45825;45.434;9.116;2023-05-10T14:10:45;6.13;;;3.97;;
59970;SDS011;45825;45.434;9.116;2023-05-10T14:13:11;5.95;;;4.05;;
59970;SDS011;45825;45.434;9.116;2023-05-10T14:15:37;5.88;;;4.00;;
59970;SDS011;45825;45.434;9.116;2023-05-10T14:18:02;6.03;;;3.83;;
59970;SDS011;45825;45.434;9.116;2023-05-10T14:20:27;7.05;;;4.47;;
59970;SDS011;45825;45.434;9.116;2023-05-10T14:22:53;6.15;;;4.20;;
59970;SDS011;45825;45.434;9.116;2023-05-10T14:25:19;7.35;;;4.05;;
59970;SDS011;45825;45.434;9.116;2023-05-10T14:27:44;6.22;;;4.43;;
59970;SDS011;45825;45.434;9.116;2023-05-10T14:30:10;7.10;;;4.38;;
59970;SDS011;45825;45.434;9.116;2023-05-10T14:32:35;6.03;;;4.28;;
59970;SDS011;45825;45.434;9.116;2023-05-10T14:35:01;6.82;;;4.50;;
59970;SDS011;45825;45.434;9.116;2023-05-10T14:37:27;7.55;;;5.00;;
59970;SDS011;45825;45.434;9.116;2023-05-10T14:39:52;8.18;;;4.45;;
59970;SDS011;45825;45.434;9.116;2023-05-10T14:42:18;6.78;;;4.47;;
59970;SDS011;45825;45.434;9.116;2023-05-10T14:44:44;6.32;;;4.43;;
59970;SDS011;45825;45.434;9.116;2023-05-10T14:47:09;6.90;;;4.30;;
59970;SDS011;45825;45.434;9.116;2023-05-10T14:49:34;7.60;;;4.22;;
59970;SDS011;45825;45.434;9.116;2023-05-10T14:52:00;7.13;;;4.60;;
59970;SDS011;45825;45.434;9.116;2023-05-10T14:54:25;6.90;;;4.55;;
59970;SDS011;45825;45.434;9.116;2023-05-10T14:56:51;8.10;;;5.47;;
59970;SDS011;45825;45.434;9.116;2023-05-10T14:59:16;7.13;;;4.80;;
59970;SDS011;45825;45.434;9.116;2023-05-10T15:01:41;7.25;;;4.82;;
59970;SDS011;45825;45.434;9.116;2023-05-10T15:04:07;8.98;;;4.70;;
59970;SDS011;45825;45.434;9.116;2023-05-10T15:06:33;6.68;;;4.40;;